sensor_id;sensor_type;location;lat;lon;timestamp;P1;durP1;ratioP1;P2;durP2;ratioP2
66380;SDS011;53177;52.648;1.214;2024-03-02T00:01:57;4.60;;;1.10;;
66380;SDS011;53177;52.648;1.214;2024-03-02T00:04:23;5.00;;;1.38;;
66380;SDS011;53177;52.648;1.214;2024-03-02T00:06:51;5.23;;;1.40;;
66380;SDS011;53177;52.648;1.214;2024-03-02T00:09:19;5.13;;;1.20;;
66380;SDS011;53177;52.648;1.214;2024-03-02T00:11:45;4.27;;;1.10;;
66380;SDS011;53177;52.648;1.214;2024-03-02T00:14:11;3.80;;;1.20;;
66380;SDS011;53177;52.648;1.214;2024-03-02T00:16:36;5.07;;;1.23;;
66380;SDS011;53177;52.648;1.214;2024-03-02T00:19:05;4.77;;;1.30;;
66380;SDS011;53177;52.648;1.214;2024-03-02T00:21:32;4.90;;;1.30;;
66380;SDS011;53177;52.648;1.214;2024-03-02T00:23:58;4.57;;;1.50;;
66380;SDS011;53177;52.648;1.214;2024-03-02T00:26:25;5.32;;;1.50;;
66380;SDS011;53177;52.648;1.214;2024-03-02T00:28:50;4.10;;;1.40;;
66380;SDS011;53177;52.648;1.214;2024-03-02T00:31:20;5.75;;;1.70;;
66380;SDS011;53177;52.648;1.214;2024-03-02T00:33:46;5.03;;;1.80;;
66380;SDS011;53177;52.648;1.214;2024-03-02T00:36:16;6.63;;;1.57;;
66380;SDS011;53177;52.648;1.214;2024-03-02T00:38:47;5.07;;;1.70;;
66380;SDS011;53177;52.648;1.214;2024-03-02T00:41:21;5.13;;;1.60;;
66380;SDS011;53177;52.648;1.214;2024-03-02T00:46:26;6.47;;;2.20;;
66380;SDS011;53177;52.648;1.214;2024-03-02T00:48:58;5.23;;;2.40;;
66380;SDS011;53177;52.648;1.214;2024-03-02T00:51:30;6.85;;;2.92;;
66380;SDS011;53177;52.648;1.214;2024-03-02T00:54:01;6.68;;;2.05;;
66380;SDS011;53177;52.648;1.214;2024-03-02T00:56:30;5.60;;;1.90;;
66380;SDS011;53177;52.648;1.214;2024-03-02T00:58:56;8.35;;;2.10;;
66380;SDS011;53177;52.648;1.214;2024-03-02T01:01:22;7.03;;;2.17;;
66380;SDS011;53177;52.648;1.214;2024-03-02T01:03:47;5.93;;;1.88;;
66380;SDS011;53177;52.648;1.214;2024-03-02T01:06:14;5.97;;;2.38;;
66380;SDS011;53177;52.648;1.214;2024-03-02T01:08:40;6.13;;;1.90;;
66380;SDS011;53177;52.648;1.214;2024-03-02T01:11:06;8.40;;;2.27;;
66380;SDS011;53177;52.648;1.214;2024-03-02T01:13:31;6.18;;;2.45;;
66380;SDS011;53177;52.648;1.214;2024-03-02T01:15:57;4.73;;;2.00;;
66380;SDS011;53177;52.648;1.214;2024-03-02T01:18:23;6.20;;;1.77;;
66380;SDS011;53177;52.648;1.214;2024-03-02T01:20:49;5.77;;;1.80;;
66380;SDS011;53177;52.648;1.214;2024-03-02T01:23:17;4.43;;;1.60;;
66380;SDS011;53177;52.648;1.214;2024-03-02T01:25:44;5.40;;;1.83;;
66380;SDS011;53177;52.648;1.214;2024-03-02T01:28:10;5.63;;;1.60;;
66380;SDS011;53177;52.648;1.214;2024-03-02T01:30:35;3.90;;;1.40;;
66380;SDS011;53177;52.648;1.214;2024-03-02T01:33:01;5.57;;;1.70;;
66380;SDS011;53177;52.648;1.214;2024-03-02T01:35:27;5.40;;;1.42;;
66380;SDS011;53177;52.648;1.214;2024-03-02T01:37:52;4.50;;;1.53;;
66380;SDS011;53177;52.648;1.214;2024-03-02T01:40:18;5.40;;;1.70;;
66380;SDS011;53177;52.648;1.214;2024-03-02T01:42:44;5.50;;;1.40;;
66380;SDS011;53177;52.648;1.214;2024-03-02T01:45:09;4.73;;;1.40;;
66380;SDS011;53177;52.648;1.214;2024-03-02T01:47:35;5.28;;;1.70;;
66380;SDS011;53177;52.648;1.214;2024-03-02T01:50:01;5.05;;;1.60;;
66380;SDS011;53177;52.648;1.214;2024-03-02T01:52:27;7.00;;;1.75;;
66380;SDS011;53177;52.648;1.214;2024-03-02T01:54:52;6.20;;;1.93;;
66380;SDS011;53177;52.648;1.214;2024-03-02T01:57:17;5.27;;;1.83;;
66380;SDS011;53177;52.648;1.214;2024-03-02T01:59:43;4.70;;;1.90;;
66380;SDS011;53177;52.648;1.214;2024-03-02T02:02:10;6.85;;;2.45;;
66380;SDS011;53177;52.648;1.214;2024-03-02T02:04:35;6.53;;;2.20;;
66380;SDS011;53177;52.648;1.214;2024-03-02T02:07:01;6.37;;;1.73;;
66380;SDS011;53177;52.648;1.214;2024-03-02T02:09:26;6.60;;;2.10;;
66380;SDS011;53177;52.648;1.214;2024-03-02T02:11:51;5.53;;;1.95;;
66380;SDS011;53177;52.648;1.214;2024-03-02T02:14:17;5.78;;;2.00;;
66380;SDS011;53177;52.648;1.214;2024-03-02T02:16:43;6.18;;;1.98;;
66380;SDS011;53177;52.648;1.214;2024-03-02T02:19:09;6.50;;;1.90;;
66380;SDS011;53177;52.648;1.214;2024-03-02T02:21:34;7.03;;;1.90;;
66380;SDS011;53177;52.648;1.214;2024-03-02T02:24:00;6.03;;;1.92;;
66380;SDS011;53177;52.648;1.214;2024-03-02T02:26:28;5.17;;;1.90;;
66380;SDS011;53177;52.648;1.214;2024-03-02T02:28:53;8.13;;;2.10;;
66380;SDS011;53177;52.648;1.214;2024-03-02T02:31:18;6.57;;;2.00;;
66380;SDS011;53177;52.648;1.214;2024-03-02T02:33:44;9.77;;;2.07;;
66380;SDS011;53177;52.648;1.214;2024-03-02T02:36:09;5.97;;;1.90;;
66380;SDS011;53177;52.648;1.214;2024-03-02T02:38:38;6.38;;;2.10;;
66380;SDS011;53177;52.648;1.214;2024-03-02T02:41:08;5.20;;;1.73;;
66380;SDS011;53177;52.648;1.214;2024-03-02T02:43:33;8.13;;;1.87;;
66380;SDS011;53177;52.648;1.214;2024-03-02T02:45:59;5.75;;;1.80;;
66380;SDS011;53177;52.648;1.214;2024-03-02T02:48:24;6.43;;;1.90;;
66380;SDS011;53177;52.648;1.214;2024-03-02T02:50:50;5.83;;;1.77;;
66380;SDS011;53177;52.648;1.214;2024-03-02T02:53:15;7.00;;;1.63;;
66380;SDS011;53177;52.648;1.214;2024-03-02T02:55:40;4.72;;;1.60;;
66380;SDS011;53177;52.648;1.214;2024-03-02T02:58:08;6.57;;;1.80;;
66380;SDS011;53177;52.648;1.214;2024-03-02T03:00:36;4.78;;;1.55;;
66380;SDS011;53177;52.648;1.214;2024-03-02T03:03:02;5.83;;;1.67;;
66380;SDS011;53177;52.648;1.214;2024-03-02T03:05:28;5.97;;;1.60;;
66380;SDS011;53177;52.648;1.214;2024-03-02T03:07:53;7.43;;;1.73;;
66380;SDS011;53177;52.648;1.214;2024-03-02T03:10:19;6.07;;;1.30;;
66380;SDS011;53177;52.648;1.214;2024-03-02T03:12:47;7.35;;;1.60;;
66380;SDS011;53177;52.648;1.214;2024-03-02T03:15:12;7.07;;;1.60;;
66380;SDS011;53177;52.648;1.214;2024-03-02T03:17:39;6.60;;;1.60;;
66380;SDS011;53177;52.648;1.214;2024-03-02T03:20:05;7.55;;;1.55;;
66380;SDS011;53177;52.648;1.214;2024-03-02T03:22:34;5.80;;;1.60;;
66380;SDS011;53177;52.648;1.214;2024-03-02T03:25:00;6.80;;;1.60;;
66380;SDS011;53177;52.648;1.214;2024-03-02T03:27:25;5.47;;;1.37;;
66380;SDS011;53177;52.648;1.214;2024-03-02T03:29:51;7.28;;;1.45;;
66380;SDS011;53177;52.648;1.214;2024-03-02T03:32:17;6.00;;;1.20;;
66380;SDS011;53177;52.648;1.214;2024-03-02T03:34:42;7.50;;;1.53;;
66380;SDS011;53177;52.648;1.214;2024-03-02T03:37:07;6.27;;;1.40;;
66380;SDS011;53177;52.648;1.214;2024-03-02T03:39:33;6.00;;;1.15;;
66380;SDS011;53177;52.648;1.214;2024-03-02T03:42:00;9.95;;;1.60;;
66380;SDS011;53177;52.648;1.214;2024-03-02T03:44:25;4.60;;;1.40;;
66380;SDS011;53177;52.648;1.214;2024-03-02T03:46:51;5.72;;;1.48;;
66380;SDS011;53177;52.648;1.214;2024-03-02T03:49:16;5.85;;;1.42;;
66380;SDS011;53177;52.648;1.214;2024-03-02T03:51:42;5.70;;;1.27;;
66380;SDS011;53177;52.648;1.214;2024-03-02T03:54:07;5.23;;;1.40;;
66380;SDS011;53177;52.648;1.214;2024-03-02T03:56:33;5.45;;;1.20;;
66380;SDS011;53177;52.648;1.214;2024-03-02T03:58:58;5.10;;;1.00;;
66380;SDS011;53177;52.648;1.214;2024-03-02T04:01:24;4.93;;;1.10;;
66380;SDS011;53177;52.648;1.214;2024-03-02T04:03:50;5.27;;;1.13;;
66380;SDS011;53177;52.648;1.214;2024-03-02T04:06:15;5.87;;;1.00;;
66380;SDS011;53177;52.648;1.214;2024-03-02T04:08:42;7.32;;;0.93;;
66380;SDS011;53177;52.648;1.214;2024-03-02T04:11:08;9.10;;;1.10;;
66380;SDS011;53177;52.648;1.214;2024-03-02T04:13:33;8.55;;;1.00;;
66380;SDS011;53177;52.648;1.214;2024-03-02T04:15:59;5.33;;;1.30;;
66380;SDS011;53177;52.648;1.214;2024-03-02T04:18:24;5.17;;;1.10;;
66380;SDS011;53177;52.648;1.214;2024-03-02T04:20:50;6.57;;;0.90;;
66380;SDS011;53177;52.648;1.214;2024-03-02T04:23:15;6.30;;;1.10;;
66380;SDS011;53177;52.648;1.214;2024-03-02T04:25:40;6.57;;;0.80;;
66380;SDS011;53177;52.648;1.214;2024-03-02T04:28:06;5.60;;;1.00;;
66380;SDS011;53177;52.648;1.214;2024-03-02T04:30:31;4.53;;;1.00;;
66380;SDS011;53177;52.648;1.214;2024-03-02T04:32:57;6.80;;;1.13;;
66380;SDS011;53177;52.648;1.214;2024-03-02T04:35:23;8.35;;;1.10;;
66380;SDS011;53177;52.648;1.214;2024-03-02T04:37:48;6.13;;;1.03;;
66380;SDS011;53177;52.648;1.214;2024-03-02T04:40:13;8.40;;;1.23;;
66380;SDS011;53177;52.648;1.214;2024-03-02T04:42:39;4.07;;;0.80;;
66380;SDS011;53177;52.648;1.214;2024-03-02T04:45:05;7.85;;;1.10;;
66380;SDS011;53177;52.648;1.214;2024-03-02T04:47:32;8.82;;;1.52;;
66380;SDS011;53177;52.648;1.214;2024-03-02T04:49:57;7.37;;;1.27;;
66380;SDS011;53177;52.648;1.214;2024-03-02T04:52:23;9.97;;;1.50;;
66380;SDS011;53177;52.648;1.214;2024-03-02T04:54:48;6.95;;;1.00;;
66380;SDS011;53177;52.648;1.214;2024-03-02T04:57:32;8.50;;;1.30;;
66380;SDS011;53177;52.648;1.214;2024-03-02T04:59:57;6.45;;;1.00;;
66380;SDS011;53177;52.648;1.214;2024-03-02T05:02:23;6.80;;;1.10;;
66380;SDS011;53177;52.648;1.214;2024-03-02T05:04:48;6.53;;;1.20;;
66380;SDS011;53177;52.648;1.214;2024-03-02T05:07:14;7.40;;;1.37;;
66380;SDS011;53177;52.648;1.214;2024-03-02T05:09:39;9.93;;;1.13;;
66380;SDS011;53177;52.648;1.214;2024-03-02T05:12:05;7.13;;;1.20;;
66380;SDS011;53177;52.648;1.214;2024-03-02T05:14:54;7.72;;;1.17;;
66380;SDS011;53177;52.648;1.214;2024-03-02T05:17:21;8.80;;;1.30;;
66380;SDS011;53177;52.648;1.214;2024-03-02T05:19:46;7.03;;;1.10;;
66380;SDS011;53177;52.648;1.214;2024-03-02T05:22:11;8.77;;;1.50;;
66380;SDS011;53177;52.648;1.214;2024-03-02T05:24:37;7.43;;;1.27;;
66380;SDS011;53177;52.648;1.214;2024-03-02T05:27:02;10.13;;;1.35;;
66380;SDS011;53177;52.648;1.214;2024-03-02T05:29:27;9.82;;;1.52;;
66380;SDS011;53177;52.648;1.214;2024-03-02T05:31:53;8.10;;;1.77;;
66380;SDS011;53177;52.648;1.214;2024-03-02T05:34:21;8.90;;;1.30;;
66380;SDS011;53177;52.648;1.214;2024-03-02T05:36:46;6.47;;;1.40;;
66380;SDS011;53177;52.648;1.214;2024-03-02T05:39:12;10.23;;;1.40;;
66380;SDS011;53177;52.648;1.214;2024-03-02T05:41:37;7.30;;;1.37;;
66380;SDS011;53177;52.648;1.214;2024-03-02T05:44:03;11.02;;;1.45;;
66380;SDS011;53177;52.648;1.214;2024-03-02T05:46:29;8.77;;;1.40;;
66380;SDS011;53177;52.648;1.214;2024-03-02T05:48:54;7.72;;;1.50;;
66380;SDS011;53177;52.648;1.214;2024-03-02T05:51:20;8.47;;;1.53;;
66380;SDS011;53177;52.648;1.214;2024-03-02T05:53:45;7.57;;;1.50;;
66380;SDS011;53177;52.648;1.214;2024-03-02T05:56:11;8.67;;;1.77;;
66380;SDS011;53177;52.648;1.214;2024-03-02T05:58:37;12.07;;;1.90;;
66380;SDS011;53177;52.648;1.214;2024-03-02T06:01:15;9.45;;;1.55;;
66380;SDS011;53177;52.648;1.214;2024-03-02T06:03:42;10.02;;;1.60;;
66380;SDS011;53177;52.648;1.214;2024-03-02T06:06:08;9.10;;;1.57;;
66380;SDS011;53177;52.648;1.214;2024-03-02T06:08:33;12.20;;;2.20;;
66380;SDS011;53177;52.648;1.214;2024-03-02T06:11:00;9.75;;;1.50;;
66380;SDS011;53177;52.648;1.214;2024-03-02T06:13:25;7.53;;;1.73;;
66380;SDS011;53177;52.648;1.214;2024-03-02T06:15:51;9.43;;;1.60;;
66380;SDS011;53177;52.648;1.214;2024-03-02T06:18:17;12.17;;;1.80;;
66380;SDS011;53177;52.648;1.214;2024-03-02T06:20:42;10.03;;;1.80;;
66380;SDS011;53177;52.648;1.214;2024-03-02T06:23:08;8.30;;;1.75;;
66380;SDS011;53177;52.648;1.214;2024-03-02T06:25:34;6.83;;;1.50;;
66380;SDS011;53177;52.648;1.214;2024-03-02T06:27:59;7.05;;;1.90;;
66380;SDS011;53177;52.648;1.214;2024-03-02T06:30:25;8.63;;;1.40;;
66380;SDS011;53177;52.648;1.214;2024-03-02T06:32:51;9.33;;;2.00;;
66380;SDS011;53177;52.648;1.214;2024-03-02T06:35:16;8.02;;;1.40;;
66380;SDS011;53177;52.648;1.214;2024-03-02T06:37:42;11.47;;;1.80;;
66380;SDS011;53177;52.648;1.214;2024-03-02T06:40:07;6.93;;;1.67;;
66380;SDS011;53177;52.648;1.214;2024-03-02T06:42:34;11.10;;;1.77;;
66380;SDS011;53177;52.648;1.214;2024-03-02T06:45:00;8.35;;;1.58;;
66380;SDS011;53177;52.648;1.214;2024-03-02T06:47:26;14.38;;;1.98;;
66380;SDS011;53177;52.648;1.214;2024-03-02T06:49:51;9.10;;;1.70;;
66380;SDS011;53177;52.648;1.214;2024-03-02T06:52:18;7.40;;;1.50;;
66380;SDS011;53177;52.648;1.214;2024-03-02T06:54:43;7.97;;;1.80;;
66380;SDS011;53177;52.648;1.214;2024-03-02T06:57:09;9.30;;;1.87;;
66380;SDS011;53177;52.648;1.214;2024-03-02T06:59:35;7.10;;;1.70;;
66380;SDS011;53177;52.648;1.214;2024-03-02T07:02:00;8.43;;;2.17;;
66380;SDS011;53177;52.648;1.214;2024-03-02T07:04:26;7.28;;;1.80;;
66380;SDS011;53177;52.648;1.214;2024-03-02T07:06:52;7.03;;;1.73;;
66380;SDS011;53177;52.648;1.214;2024-03-02T07:09:17;9.47;;;1.97;;
66380;SDS011;53177;52.648;1.214;2024-03-02T07:11:42;10.87;;;2.10;;
66380;SDS011;53177;52.648;1.214;2024-03-02T07:14:08;11.93;;;1.93;;
66380;SDS011;53177;52.648;1.214;2024-03-02T07:16:33;9.07;;;1.88;;
66380;SDS011;53177;52.648;1.214;2024-03-02T07:19:03;13.85;;;2.33;;
66380;SDS011;53177;52.648;1.214;2024-03-02T07:21:28;10.97;;;1.90;;
66380;SDS011;53177;52.648;1.214;2024-03-02T07:23:54;11.03;;;1.73;;
66380;SDS011;53177;52.648;1.214;2024-03-02T07:26:19;12.33;;;1.83;;
66380;SDS011;53177;52.648;1.214;2024-03-02T07:28:47;16.02;;;2.33;;
66380;SDS011;53177;52.648;1.214;2024-03-02T07:31:14;17.07;;;2.50;;
66380;SDS011;53177;52.648;1.214;2024-03-02T07:33:40;7.85;;;1.73;;
66380;SDS011;53177;52.648;1.214;2024-03-02T07:36:06;14.88;;;2.35;;
66380;SDS011;53177;52.648;1.214;2024-03-02T07:38:32;16.17;;;2.17;;
66380;SDS011;53177;52.648;1.214;2024-03-02T07:40:59;14.63;;;1.90;;
66380;SDS011;53177;52.648;1.214;2024-03-02T07:43:25;15.93;;;2.10;;
66380;SDS011;53177;52.648;1.214;2024-03-02T07:45:51;13.05;;;1.88;;
66380;SDS011;53177;52.648;1.214;2024-03-02T07:48:17;8.80;;;1.90;;
66380;SDS011;53177;52.648;1.214;2024-03-02T07:50:42;8.95;;;1.90;;
66380;SDS011;53177;52.648;1.214;2024-03-02T07:53:08;10.50;;;1.70;;
66380;SDS011;53177;52.648;1.214;2024-03-02T07:55:34;10.13;;;1.55;;
66380;SDS011;53177;52.648;1.214;2024-03-02T07:58:02;10.10;;;1.90;;
66380;SDS011;53177;52.648;1.214;2024-03-02T08:00:28;8.52;;;1.77;;
66380;SDS011;53177;52.648;1.214;2024-03-02T08:02:53;7.83;;;1.60;;
66380;SDS011;53177;52.648;1.214;2024-03-02T08:05:20;13.10;;;1.83;;
66380;SDS011;53177;52.648;1.214;2024-03-02T08:07:45;9.07;;;1.70;;
66380;SDS011;53177;52.648;1.214;2024-03-02T08:10:12;13.82;;;2.10;;
66380;SDS011;53177;52.648;1.214;2024-03-02T08:12:37;8.07;;;1.73;;
66380;SDS011;53177;52.648;1.214;2024-03-02T08:15:03;8.77;;;1.33;;
66380;SDS011;53177;52.648;1.214;2024-03-02T08:17:29;10.00;;;1.85;;
66380;SDS011;53177;52.648;1.214;2024-03-02T08:19:55;13.23;;;2.28;;
66380;SDS011;53177;52.648;1.214;2024-03-02T08:22:21;14.03;;;1.57;;
66380;SDS011;53177;52.648;1.214;2024-03-02T08:24:47;8.25;;;1.40;;
66380;SDS011;53177;52.648;1.214;2024-03-02T08:27:13;8.15;;;1.50;;
66380;SDS011;53177;52.648;1.214;2024-03-02T08:29:39;14.43;;;2.15;;
66380;SDS011;53177;52.648;1.214;2024-03-02T08:32:06;9.90;;;1.40;;
66380;SDS011;53177;52.648;1.214;2024-03-02T08:34:32;11.63;;;1.40;;
66380;SDS011;53177;52.648;1.214;2024-03-02T08:36:58;9.97;;;1.50;;
66380;SDS011;53177;52.648;1.214;2024-03-02T08:39:24;10.43;;;1.80;;
66380;SDS011;53177;52.648;1.214;2024-03-02T08:41:49;12.20;;;2.07;;
66380;SDS011;53177;52.648;1.214;2024-03-02T08:44:15;12.13;;;1.40;;
66380;SDS011;53177;52.648;1.214;2024-03-02T08:46:42;8.43;;;1.67;;
66380;SDS011;53177;52.648;1.214;2024-03-02T08:49:08;7.55;;;1.65;;
66380;SDS011;53177;52.648;1.214;2024-03-02T08:51:34;9.93;;;1.87;;
66380;SDS011;53177;52.648;1.214;2024-03-02T08:53:59;10.30;;;1.60;;
66380;SDS011;53177;52.648;1.214;2024-03-02T08:56:25;14.77;;;1.95;;
66380;SDS011;53177;52.648;1.214;2024-03-02T08:58:51;16.00;;;2.30;;
66380;SDS011;53177;52.648;1.214;2024-03-02T09:01:17;12.02;;;2.03;;
66380;SDS011;53177;52.648;1.214;2024-03-02T09:03:44;9.60;;;1.70;;
66380;SDS011;53177;52.648;1.214;2024-03-02T09:06:10;12.93;;;2.17;;
66380;SDS011;53177;52.648;1.214;2024-03-02T09:08:36;10.85;;;1.90;;
66380;SDS011;53177;52.648;1.214;2024-03-02T09:11:02;14.50;;;1.90;;
66380;SDS011;53177;52.648;1.214;2024-03-02T09:13:28;10.10;;;1.90;;
66380;SDS011;53177;52.648;1.214;2024-03-02T09:15:54;14.53;;;1.97;;
66380;SDS011;53177;52.648;1.214;2024-03-02T09:18:19;13.18;;;2.05;;
66380;SDS011;53177;52.648;1.214;2024-03-02T09:20:45;10.80;;;1.70;;
66380;SDS011;53177;52.648;1.214;2024-03-02T09:23:11;10.07;;;2.20;;
66380;SDS011;53177;52.648;1.214;2024-03-02T09:25:36;10.52;;;2.20;;
66380;SDS011;53177;52.648;1.214;2024-03-02T09:28:02;11.80;;;2.10;;
66380;SDS011;53177;52.648;1.214;2024-03-02T09:30:28;9.98;;;1.90;;
66380;SDS011;53177;52.648;1.214;2024-03-02T09:32:53;11.23;;;1.90;;
66380;SDS011;53177;52.648;1.214;2024-03-02T09:35:19;9.80;;;1.93;;
66380;SDS011;53177;52.648;1.214;2024-03-02T09:37:44;8.48;;;1.60;;
66380;SDS011;53177;52.648;1.214;2024-03-02T09:40:10;11.70;;;1.60;;
66380;SDS011;53177;52.648;1.214;2024-03-02T09:42:36;10.02;;;1.85;;
66380;SDS011;53177;52.648;1.214;2024-03-02T09:45:02;9.83;;;1.40;;
66380;SDS011;53177;52.648;1.214;2024-03-02T09:47:28;10.98;;;1.90;;
66380;SDS011;53177;52.648;1.214;2024-03-02T09:49:54;8.50;;;1.57;;
66380;SDS011;53177;52.648;1.214;2024-03-02T09:52:20;8.50;;;1.33;;
66380;SDS011;53177;52.648;1.214;2024-03-02T09:54:47;12.38;;;1.55;;
66380;SDS011;53177;52.648;1.214;2024-03-02T09:57:13;10.32;;;1.50;;
66380;SDS011;53177;52.648;1.214;2024-03-02T09:59:39;12.85;;;1.70;;
66380;SDS011;53177;52.648;1.214;2024-03-02T10:02:05;11.20;;;1.47;;
66380;SDS011;53177;52.648;1.214;2024-03-02T10:04:32;10.60;;;1.40;;
66380;SDS011;53177;52.648;1.214;2024-03-02T10:07:11;7.85;;;1.10;;
66380;SDS011;53177;52.648;1.214;2024-03-02T10:09:37;8.13;;;1.50;;
66380;SDS011;53177;52.648;1.214;2024-03-02T10:12:05;9.37;;;1.30;;
66380;SDS011;53177;52.648;1.214;2024-03-02T10:14:36;10.82;;;1.85;;
66380;SDS011;53177;52.648;1.214;2024-03-02T10:17:08;11.60;;;1.33;;
66380;SDS011;53177;52.648;1.214;2024-03-02T10:19:35;13.13;;;1.85;;
66380;SDS011;53177;52.648;1.214;2024-03-02T10:22:02;9.90;;;1.70;;
66380;SDS011;53177;52.648;1.214;2024-03-02T10:24:34;13.05;;;1.52;;
66380;SDS011;53177;52.648;1.214;2024-03-02T10:27:16;9.90;;;1.50;;
66380;SDS011;53177;52.648;1.214;2024-03-02T10:29:45;12.35;;;2.30;;
66380;SDS011;53177;52.648;1.214;2024-03-02T10:32:12;10.52;;;1.92;;
66380;SDS011;53177;52.648;1.214;2024-03-02T10:34:39;12.67;;;1.77;;
66380;SDS011;53177;52.648;1.214;2024-03-02T10:37:06;9.05;;;1.40;;
66380;SDS011;53177;52.648;1.214;2024-03-02T10:39:34;9.35;;;1.63;;
66380;SDS011;53177;52.648;1.214;2024-03-02T10:42:04;10.38;;;1.80;;
66380;SDS011;53177;52.648;1.214;2024-03-02T10:44:31;9.40;;;1.90;;
66380;SDS011;53177;52.648;1.214;2024-03-02T10:46:58;11.18;;;2.10;;
66380;SDS011;53177;52.648;1.214;2024-03-02T10:49:27;9.02;;;1.58;;
66380;SDS011;53177;52.648;1.214;2024-03-02T10:51:54;12.85;;;1.92;;
66380;SDS011;53177;52.648;1.214;2024-03-02T10:54:19;10.23;;;2.00;;
66380;SDS011;53177;52.648;1.214;2024-03-02T10:56:51;12.57;;;1.70;;
66380;SDS011;53177;52.648;1.214;2024-03-02T11:01:59;9.80;;;1.70;;
66380;SDS011;53177;52.648;1.214;2024-03-02T11:04:27;8.65;;;1.75;;
66380;SDS011;53177;52.648;1.214;2024-03-02T11:06:55;12.63;;;1.80;;
66380;SDS011;53177;52.648;1.214;2024-03-02T11:09:26;8.88;;;1.48;;
66380;SDS011;53177;52.648;1.214;2024-03-02T11:12:03;12.40;;;1.70;;
66380;SDS011;53177;52.648;1.214;2024-03-02T11:14:30;10.47;;;1.43;;
66380;SDS011;53177;52.648;1.214;2024-03-02T11:16:58;8.40;;;1.40;;
66380;SDS011;53177;52.648;1.214;2024-03-02T11:19:26;10.27;;;1.55;;
66380;SDS011;53177;52.648;1.214;2024-03-02T11:21:52;8.63;;;1.70;;
66380;SDS011;53177;52.648;1.214;2024-03-02T11:26:50;10.23;;;1.50;;
66380;SDS011;53177;52.648;1.214;2024-03-02T11:32:05;10.18;;;1.63;;
66380;SDS011;53177;52.648;1.214;2024-03-02T11:34:42;8.35;;;1.85;;
66380;SDS011;53177;52.648;1.214;2024-03-02T11:37:10;8.35;;;1.45;;
66380;SDS011;53177;52.648;1.214;2024-03-02T11:39:36;11.73;;;1.60;;
66380;SDS011;53177;52.648;1.214;2024-03-02T11:42:05;13.15;;;1.30;;
66380;SDS011;53177;52.648;1.214;2024-03-02T11:44:35;10.30;;;1.25;;
66380;SDS011;53177;52.648;1.214;2024-03-02T11:47:03;10.45;;;1.30;;
66380;SDS011;53177;52.648;1.214;2024-03-02T11:49:41;9.77;;;1.10;;
66380;SDS011;53177;52.648;1.214;2024-03-02T11:52:07;11.83;;;1.60;;
66380;SDS011;53177;52.648;1.214;2024-03-02T11:54:34;6.90;;;1.17;;
66380;SDS011;53177;52.648;1.214;2024-03-02T11:57:04;9.57;;;1.35;;
66380;SDS011;53177;52.648;1.214;2024-03-02T11:59:30;11.00;;;1.55;;
66380;SDS011;53177;52.648;1.214;2024-03-02T12:01:55;9.07;;;1.37;;
66380;SDS011;53177;52.648;1.214;2024-03-02T12:04:22;7.65;;;1.55;;
66380;SDS011;53177;52.648;1.214;2024-03-02T12:06:53;9.82;;;1.50;;
66380;SDS011;53177;52.648;1.214;2024-03-02T12:09:20;10.15;;;1.60;;
66380;SDS011;53177;52.648;1.214;2024-03-02T12:11:46;16.30;;;2.10;;
66380;SDS011;53177;52.648;1.214;2024-03-02T12:14:11;11.13;;;2.00;;
66380;SDS011;53177;52.648;1.214;2024-03-02T12:16:44;9.90;;;1.30;;
66380;SDS011;53177;52.648;1.214;2024-03-02T12:19:09;9.23;;;1.30;;
66380;SDS011;53177;52.648;1.214;2024-03-02T12:21:35;8.97;;;1.20;;
66380;SDS011;53177;52.648;1.214;2024-03-02T12:24:01;7.45;;;1.40;;
66380;SDS011;53177;52.648;1.214;2024-03-02T12:26:27;9.37;;;1.30;;
66380;SDS011;53177;52.648;1.214;2024-03-02T12:28:53;7.07;;;0.98;;
66380;SDS011;53177;52.648;1.214;2024-03-02T12:31:19;14.43;;;1.77;;
66380;SDS011;53177;52.648;1.214;2024-03-02T12:33:45;8.07;;;1.47;;
66380;SDS011;53177;52.648;1.214;2024-03-02T12:36:12;12.63;;;1.63;;
66380;SDS011;53177;52.648;1.214;2024-03-02T12:38:43;10.48;;;1.67;;
66380;SDS011;53177;52.648;1.214;2024-03-02T12:41:09;8.85;;;1.20;;
66380;SDS011;53177;52.648;1.214;2024-03-02T12:43:34;11.27;;;1.40;;
66380;SDS011;53177;52.648;1.214;2024-03-02T12:45:59;7.07;;;1.20;;
66380;SDS011;53177;52.648;1.214;2024-03-02T12:48:25;10.68;;;1.65;;
66380;SDS011;53177;52.648;1.214;2024-03-02T12:50:51;8.37;;;1.50;;
66380;SDS011;53177;52.648;1.214;2024-03-02T12:53:17;10.07;;;1.50;;
66380;SDS011;53177;52.648;1.214;2024-03-02T12:55:42;10.33;;;1.50;;
66380;SDS011;53177;52.648;1.214;2024-03-02T12:58:16;10.23;;;1.48;;
66380;SDS011;53177;52.648;1.214;2024-03-02T13:00:42;7.93;;;1.42;;
66380;SDS011;53177;52.648;1.214;2024-03-02T13:03:07;9.90;;;1.57;;
66380;SDS011;53177;52.648;1.214;2024-03-02T13:05:33;11.73;;;1.60;;
66380;SDS011;53177;52.648;1.214;2024-03-02T13:07:58;12.45;;;1.90;;
66380;SDS011;53177;52.648;1.214;2024-03-02T13:10:29;13.00;;;2.17;;
66380;SDS011;53177;52.648;1.214;2024-03-02T13:12:56;13.93;;;1.63;;
66380;SDS011;53177;52.648;1.214;2024-03-02T13:15:21;9.52;;;1.60;;
66380;SDS011;53177;52.648;1.214;2024-03-02T13:17:47;11.23;;;1.50;;
66380;SDS011;53177;52.648;1.214;2024-03-02T13:20:12;12.23;;;1.53;;
66380;SDS011;53177;52.648;1.214;2024-03-02T13:22:39;11.30;;;1.50;;
66380;SDS011;53177;52.648;1.214;2024-03-02T13:25:04;15.57;;;1.67;;
66380;SDS011;53177;52.648;1.214;2024-03-02T13:27:30;8.45;;;1.45;;
66380;SDS011;53177;52.648;1.214;2024-03-02T13:29:59;11.95;;;1.90;;
66380;SDS011;53177;52.648;1.214;2024-03-02T13:32:24;10.90;;;1.80;;
66380;SDS011;53177;52.648;1.214;2024-03-02T13:34:51;14.43;;;2.00;;
66380;SDS011;53177;52.648;1.214;2024-03-02T13:37:16;11.07;;;1.58;;
66380;SDS011;53177;52.648;1.214;2024-03-02T13:39:42;11.15;;;1.77;;
66380;SDS011;53177;52.648;1.214;2024-03-02T13:42:08;12.00;;;2.00;;
66380;SDS011;53177;52.648;1.214;2024-03-02T13:44:34;8.23;;;1.67;;
66380;SDS011;53177;52.648;1.214;2024-03-02T13:47:00;13.02;;;1.65;;
66380;SDS011;53177;52.648;1.214;2024-03-02T13:49:26;13.67;;;2.00;;
66380;SDS011;53177;52.648;1.214;2024-03-02T13:52:11;15.15;;;2.10;;
66380;SDS011;53177;52.648;1.214;2024-03-02T13:54:41;10.25;;;1.80;;
66380;SDS011;53177;52.648;1.214;2024-03-02T13:57:08;12.57;;;1.85;;
66380;SDS011;53177;52.648;1.214;2024-03-02T13:59:34;9.40;;;1.77;;
66380;SDS011;53177;52.648;1.214;2024-03-02T14:02:01;10.60;;;1.35;;
66380;SDS011;53177;52.648;1.214;2024-03-02T14:04:27;7.25;;;1.25;;
66380;SDS011;53177;52.648;1.214;2024-03-02T14:06:52;6.00;;;1.30;;
66380;SDS011;53177;52.648;1.214;2024-03-02T14:09:18;10.30;;;1.40;;
66380;SDS011;53177;52.648;1.214;2024-03-02T14:11:45;6.83;;;1.40;;
66380;SDS011;53177;52.648;1.214;2024-03-02T14:14:11;15.07;;;2.55;;
66380;SDS011;53177;52.648;1.214;2024-03-02T14:16:36;9.10;;;1.80;;
66380;SDS011;53177;52.648;1.214;2024-03-02T14:19:02;9.03;;;2.17;;
66380;SDS011;53177;52.648;1.214;2024-03-02T14:21:29;6.05;;;0.80;;
66380;SDS011;53177;52.648;1.214;2024-03-02T14:23:55;5.82;;;0.93;;
66380;SDS011;53177;52.648;1.214;2024-03-02T14:26:20;4.33;;;0.73;;
66380;SDS011;53177;52.648;1.214;2024-03-02T14:28:46;3.93;;;0.47;;
66380;SDS011;53177;52.648;1.214;2024-03-02T14:31:11;4.83;;;0.70;;
66380;SDS011;53177;52.648;1.214;2024-03-02T14:33:37;6.68;;;0.80;;
66380;SDS011;53177;52.648;1.214;2024-03-02T14:36:02;4.93;;;0.70;;
66380;SDS011;53177;52.648;1.214;2024-03-02T14:38:29;4.30;;;0.70;;
66380;SDS011;53177;52.648;1.214;2024-03-02T14:40:55;6.55;;;0.80;;
66380;SDS011;53177;52.648;1.214;2024-03-02T14:43:21;8.13;;;1.20;;
66380;SDS011;53177;52.648;1.214;2024-03-02T14:45:47;9.40;;;1.55;;
66380;SDS011;53177;52.648;1.214;2024-03-02T14:48:13;5.22;;;0.90;;
66380;SDS011;53177;52.648;1.214;2024-03-02T14:50:39;7.18;;;1.10;;